Pagina principală
METAR-TAF:

METAR-TAF

Aeroporturi :

Jinotega, Nicaragua

Latitudine: 13-05N, longitudine: 085-59W, elevație: 985 m

Observații meteo curente

Raportul a fost făcut în urmă cu 6 ore și 8 de minute, la 23:00 UTC
Vânt 8 kt de la Est
Temperatură 24°C
Umiditate 74%
Presiune 1013 hPa
Vizibilitate de 10 km sau mai mult
Nori fragmentați la o înălțime de 1200 picior

METAR: MNJG 132300Z 09008KT 9999 BKN012 24/19 Q1013

Ora: 23:08 (05:08 UTC)


TAF: lipsă

Observații și prognoze meteo pentru peste 4.000 de aeroporturi (rapoarte METAR și TAF).

Stațiile disponibile sunt reprezentate pe hartă prin puncte galbene și roșii.

Țineți indicatorul mouse-ului pe punctul dorit pentru a vedea denumirea stației.

Apoi, faceți clic pentru a vedea observațiile și prognozele meteorologice.

Pentru a schimba harta: Pentru mărire, faceți clic pe butoanele verzi cu cruce neagră; pentru micșorare, pe butonul verde cu o liniuță; pentru hărți învecinate, pe săgețile verzi.


METAR-TAF: